createdAt,value
2023-07-22T00:02:17.716Z,13.16
2023-07-22T00:04:44.693Z,13.14
2023-07-22T00:07:11.947Z,13.13
2023-07-22T00:09:39.853Z,13.09
2023-07-22T00:12:06.805Z,13.06
2023-07-22T00:14:33.409Z,13.06
2023-07-22T00:17:00.006Z,13.03
2023-07-22T00:19:26.599Z,12.98
2023-07-22T00:21:53.360Z,12.98
2023-07-22T00:24:19.966Z,13.00
2023-07-22T00:26:46.606Z,12.98
2023-07-22T00:29:13.245Z,12.95
2023-07-22T00:31:39.755Z,12.94
2023-07-22T00:34:06.400Z,12.90
2023-07-22T00:36:33.077Z,12.89
2023-07-22T00:38:59.802Z,12.85
2023-07-22T00:41:26.941Z,12.82
2023-07-22T00:43:53.725Z,12.78
2023-07-22T00:46:20.342Z,12.76
2023-07-22T00:48:48.661Z,12.73
2023-07-22T00:51:15.776Z,12.70
2023-07-22T00:53:42.441Z,12.65
2023-07-22T00:56:09.642Z,12.64
2023-07-22T00:58:36.545Z,12.64
2023-07-22T01:01:03.261Z,12.63
2023-07-22T01:03:29.988Z,12.61
2023-07-22T01:05:58.077Z,12.61
2023-07-22T01:08:24.538Z,12.59
2023-07-22T01:10:50.980Z,12.58
2023-07-22T01:13:17.597Z,12.57
2023-07-22T01:15:44.499Z,12.51
2023-07-22T01:18:11.287Z,12.47
2023-07-22T01:20:38.762Z,12.43
2023-07-22T01:23:05.647Z,12.43
2023-07-22T01:25:32.258Z,12.41
2023-07-22T01:27:58.834Z,12.43
2023-07-22T01:30:27.410Z,12.43
2023-07-22T01:32:54.433Z,12.41
2023-07-22T01:35:22.356Z,12.40
2023-07-22T01:37:48.992Z,12.39
2023-07-22T01:40:15.533Z,12.34
2023-07-22T01:42:43.275Z,12.32
2023-07-22T01:45:10.619Z,12.31
2023-07-22T01:47:37.915Z,12.28
2023-07-22T01:50:07.437Z,12.25
2023-07-22T01:52:34.175Z,12.19
2023-07-22T01:55:00.853Z,12.17
2023-07-22T01:57:27.403Z,12.16
2023-07-22T01:59:53.997Z,12.14
2023-07-22T02:02:21.236Z,12.14
2023-07-22T02:04:47.806Z,12.13
2023-07-22T02:07:14.873Z,12.13
2023-07-22T02:09:42.042Z,12.09
2023-07-22T02:12:09.419Z,12.08
2023-07-22T02:14:35.951Z,12.07
2023-07-22T02:17:02.537Z,12.04
2023-07-22T02:19:29.721Z,12.01
2023-07-22T02:21:56.332Z,12.00
2023-07-22T02:24:23.027Z,11.98
2023-07-22T02:26:49.660Z,11.95
2023-07-22T02:29:16.269Z,11.94
2023-07-22T02:31:42.873Z,11.90
2023-07-22T02:34:09.439Z,11.91
2023-07-22T02:36:35.975Z,11.90
2023-07-22T02:39:02.666Z,11.87
2023-07-22T02:41:29.128Z,11.87
2023-07-22T02:43:55.815Z,11.84
2023-07-22T02:46:23.007Z,11.82
2023-07-22T02:48:49.911Z,11.83
2023-07-22T02:51:16.548Z,11.81
2023-07-22T02:53:43.482Z,11.81
2023-07-22T02:56:12.084Z,11.80
2023-07-22T02:58:38.660Z,11.79
2023-07-22T03:01:06.364Z,11.76
2023-07-22T03:03:35.931Z,11.75
2023-07-22T03:06:04.364Z,11.71
2023-07-22T03:08:31.423Z,11.70
2023-07-22T03:10:57.963Z,11.68
2023-07-22T03:13:24.536Z,11.65
2023-07-22T03:15:51.495Z,11.65
2023-07-22T03:18:18.110Z,11.65
2023-07-22T03:20:44.780Z,11.66
2023-07-22T03:23:11.349Z,11.65
2023-07-22T03:25:37.904Z,11.65
2023-07-22T03:28:06.157Z,11.67
2023-07-22T03:30:33.037Z,11.66
2023-07-22T03:33:00.182Z,11.66
2023-07-22T03:35:27.015Z,11.67
2023-07-22T03:37:53.582Z,11.67
2023-07-22T03:40:27.787Z,11.68
2023-07-22T03:42:55.989Z,11.69
2023-07-22T03:45:23.429Z,11.69
2023-07-22T03:48:01.298Z,11.69
2023-07-22T03:50:29.050Z,11.68
2023-07-22T03:52:55.675Z,11.68
2023-07-22T03:55:22.236Z,11.67
2023-07-22T03:57:49.084Z,11.67
2023-07-22T04:00:15.948Z,11.69
2023-07-22T04:02:42.872Z,11.69
2023-07-22T04:05:11.052Z,11.69
2023-07-22T04:07:37.977Z,11.67
2023-07-22T04:10:04.917Z,11.69
2023-07-22T04:12:32.636Z,11.70
2023-07-22T04:14:59.257Z,11.69
2023-07-22T04:17:28.784Z,11.67
2023-07-22T04:19:55.450Z,11.69
2023-07-22T04:22:23.162Z,11.72
2023-07-22T04:24:50.213Z,11.75
2023-07-22T04:27:17.389Z,11.78
2023-07-22T04:29:44.203Z,11.81
2023-07-22T04:32:10.812Z,11.84
2023-07-22T04:34:37.365Z,11.89
2023-07-22T04:37:04.234Z,11.92
2023-07-22T04:39:30.773Z,11.95
2023-07-22T04:41:57.407Z,11.99
2023-07-22T04:44:25.029Z,12.02
2023-07-22T04:46:51.787Z,12.07
2023-07-22T04:49:19.196Z,12.12
2023-07-22T04:51:47.182Z,12.18
2023-07-22T04:54:14.295Z,12.26
2023-07-22T04:56:40.876Z,12.30
2023-07-22T04:59:07.819Z,12.37
2023-07-22T05:01:34.332Z,12.42
2023-07-22T05:04:01.169Z,12.49
2023-07-22T05:06:30.002Z,12.53
2023-07-22T05:08:56.777Z,12.59
2023-07-22T05:11:24.361Z,12.64
2023-07-22T05:13:51.890Z,12.68
2023-07-22T05:16:18.634Z,12.73
2023-07-22T05:18:45.212Z,12.80
2023-07-22T05:21:11.709Z,12.90
2023-07-22T05:23:38.238Z,12.98
2023-07-22T05:26:04.964Z,13.03
2023-07-22T05:28:31.639Z,13.10
2023-07-22T05:30:58.419Z,13.17
2023-07-22T05:33:25.197Z,13.27
2023-07-22T05:35:51.777Z,13.37
2023-07-22T05:38:18.457Z,13.44
2023-07-22T05:40:45.632Z,13.51
2023-07-22T05:43:12.349Z,13.55
2023-07-22T05:45:38.929Z,13.61
2023-07-22T05:48:05.950Z,13.67
2023-07-22T05:50:32.544Z,13.72
2023-07-22T05:52:59.114Z,13.78
2023-07-22T05:55:25.690Z,13.84
2023-07-22T05:57:52.260Z,13.91
2023-07-22T06:00:19.895Z,14.00
2023-07-22T06:02:46.553Z,14.11
2023-07-22T06:05:13.111Z,14.20
2023-07-22T06:07:39.861Z,14.27
2023-07-22T06:10:07.435Z,14.34
2023-07-22T06:12:34.126Z,14.42
2023-07-22T06:15:00.717Z,14.48
2023-07-22T06:17:27.814Z,14.56
2023-07-22T06:19:54.605Z,14.65
2023-07-22T06:22:21.110Z,14.73
2023-07-22T06:24:47.829Z,14.81
2023-07-22T06:27:14.372Z,14.91
2023-07-22T06:29:40.936Z,15.05
2023-07-22T06:32:07.995Z,15.46
2023-07-22T06:34:34.587Z,15.87
2023-07-22T06:37:01.148Z,16.21
2023-07-22T06:39:27.673Z,16.49
2023-07-22T06:41:54.344Z,16.62
2023-07-22T06:44:20.900Z,16.76
2023-07-22T06:46:47.494Z,16.73
2023-07-22T06:49:14.118Z,16.68
2023-07-22T06:51:40.650Z,16.81
2023-07-22T06:54:07.233Z,16.86
2023-07-22T06:56:33.831Z,17.05
2023-07-22T06:59:00.427Z,17.14
2023-07-22T07:01:27.076Z,17.20
2023-07-22T07:03:53.718Z,17.27
2023-07-22T07:06:20.499Z,17.41
2023-07-22T07:08:47.138Z,17.49
2023-07-22T07:11:13.699Z,17.50
2023-07-22T07:13:40.221Z,17.48
2023-07-22T07:16:28.224Z,17.49
2023-07-22T07:18:56.602Z,17.61
2023-07-22T07:21:23.626Z,17.81
2023-07-22T07:23:50.598Z,18.10
2023-07-22T07:26:17.173Z,18.21
2023-07-22T07:28:43.992Z,18.25
2023-07-22T07:31:11.039Z,18.23
2023-07-22T07:33:37.680Z,18.11
2023-07-22T07:36:05.066Z,18.02
2023-07-22T07:38:32.582Z,17.96
2023-07-22T07:41:05.049Z,17.99
2023-07-22T07:43:31.671Z,18.06
2023-07-22T07:46:23.379Z,18.19
2023-07-22T07:48:53.279Z,18.20
2023-07-22T07:51:22.137Z,18.20
2023-07-22T07:53:49.886Z,18.33
2023-07-22T07:56:18.399Z,18.39
2023-07-22T07:58:46.801Z,18.35
2023-07-22T08:01:13.694Z,18.39
2023-07-22T08:03:45.653Z,18.42
2023-07-22T08:06:13.307Z,18.46
2023-07-22T08:08:40.610Z,18.48
2023-07-22T08:11:14.476Z,18.51
2023-07-22T08:13:41.744Z,18.64
2023-07-22T08:16:09.938Z,18.74
2023-07-22T08:18:37.585Z,18.89
2023-07-22T08:21:05.659Z,19.10
2023-07-22T08:23:32.223Z,19.14
2023-07-22T08:25:58.835Z,19.18
2023-07-22T08:28:25.619Z,19.33
2023-07-22T08:30:55.819Z,19.52
2023-07-22T08:33:38.936Z,19.79
2023-07-22T08:36:08.510Z,20.21
2023-07-22T08:38:35.246Z,20.25
2023-07-22T08:41:01.944Z,20.20
2023-07-22T08:43:30.164Z,20.27
2023-07-22T08:46:01.456Z,20.31
2023-07-22T08:48:34.290Z,20.48
2023-07-22T08:51:06.347Z,20.74
2023-07-22T08:53:34.421Z,20.73
2023-07-22T08:56:03.397Z,20.72
2023-07-22T08:58:30.829Z,20.69
2023-07-22T09:00:57.930Z,20.54
2023-07-22T09:03:25.440Z,20.50
2023-07-22T09:05:52.956Z,20.66
2023-07-22T09:08:19.697Z,20.68
2023-07-22T09:10:47.195Z,20.81
2023-07-22T09:13:19.509Z,20.98
2023-07-22T09:15:48.937Z,21.12
2023-07-22T09:18:16.750Z,21.19
2023-07-22T09:20:43.680Z,21.10
2023-07-22T09:23:14.061Z,20.93
2023-07-22T09:25:42.723Z,20.85
2023-07-22T09:28:10.441Z,20.71
2023-07-22T09:30:42.227Z,20.53
2023-07-22T09:33:21.650Z,20.82
2023-07-22T09:35:50.297Z,20.97
2023-07-22T09:38:26.712Z,20.95
2023-07-22T09:40:54.334Z,20.89
2023-07-22T09:43:23.585Z,20.89
2023-07-22T09:45:50.155Z,20.96
2023-07-22T09:48:17.712Z,20.81
2023-07-22T09:50:44.706Z,20.81
2023-07-22T09:53:17.213Z,20.80
2023-07-22T09:55:44.978Z,20.69
2023-07-22T09:58:11.956Z,20.70
2023-07-22T10:00:40.186Z,20.71
2023-07-22T10:03:14.602Z,20.74
2023-07-22T10:05:44.014Z,20.72
2023-07-22T10:08:13.156Z,20.73
2023-07-22T10:10:40.145Z,20.63
2023-07-22T10:13:07.509Z,20.51
2023-07-22T10:15:35.777Z,20.49
2023-07-22T10:18:04.495Z,20.60
2023-07-22T10:20:31.833Z,20.73
2023-07-22T10:23:00.096Z,20.86
2023-07-22T10:25:26.620Z,20.91
2023-07-22T10:27:54.253Z,21.02
2023-07-22T10:30:21.154Z,21.18
2023-07-22T10:32:52.952Z,21.18
2023-07-22T10:35:35.124Z,21.05
2023-07-22T10:38:09.110Z,21.00
2023-07-22T10:40:48.593Z,20.92
2023-07-22T10:43:19.710Z,20.85
2023-07-22T10:45:54.777Z,20.83
2023-07-22T10:48:23.896Z,20.73
2023-07-22T10:50:55.194Z,20.71
2023-07-22T10:53:24.792Z,20.73
2023-07-22T10:56:10.236Z,20.80
2023-07-22T10:58:45.783Z,20.78
2023-07-22T11:01:27.736Z,20.67
2023-07-22T11:04:13.891Z,20.51
2023-07-22T11:06:49.285Z,20.15
2023-07-22T11:09:37.081Z,19.94
2023-07-22T11:12:05.116Z,19.95
2023-07-22T11:14:38.537Z,20.05
2023-07-22T11:17:06.899Z,20.05
2023-07-22T11:19:36.344Z,20.22
2023-07-22T11:22:04.156Z,20.39
2023-07-22T11:24:31.155Z,20.55
2023-07-22T11:26:57.792Z,20.64
2023-07-22T11:29:24.321Z,20.71
2023-07-22T11:31:52.650Z,20.62
2023-07-22T11:34:24.672Z,20.56
2023-07-22T11:36:52.624Z,20.45
2023-07-22T11:39:21.427Z,20.43
2023-07-22T11:41:49.164Z,20.45
2023-07-22T11:44:18.476Z,20.67
2023-07-22T11:47:05.906Z,21.00
2023-07-22T11:49:37.662Z,21.14
2023-07-22T11:52:06.585Z,21.06
2023-07-22T11:54:34.640Z,20.90
2023-07-22T11:57:30.510Z,20.77
2023-07-22T11:59:57.968Z,20.56
2023-07-22T12:02:27.106Z,20.30
2023-07-22T12:05:06.182Z,20.18
2023-07-22T12:07:37.615Z,20.02
2023-07-22T12:10:06.659Z,19.81
2023-07-22T12:12:37.116Z,19.70
2023-07-22T12:15:16.589Z,19.58
2023-07-22T12:17:51.387Z,19.61
2023-07-22T12:20:18.855Z,19.63
2023-07-22T12:22:45.838Z,19.70
2023-07-22T12:25:12.574Z,19.64
2023-07-22T12:27:39.264Z,19.53
2023-07-22T12:30:07.990Z,19.65
2023-07-22T12:32:34.914Z,19.76
2023-07-22T12:35:01.758Z,19.64
2023-07-22T12:37:29.378Z,19.51
2023-07-22T12:39:56.137Z,19.52
2023-07-22T12:42:22.797Z,19.54
2023-07-22T12:44:49.444Z,19.49
2023-07-22T12:47:16.079Z,19.44
2023-07-22T12:49:43.310Z,19.36
2023-07-22T12:52:10.457Z,19.27
2023-07-22T12:54:37.210Z,19.18
2023-07-22T12:57:04.045Z,19.05
2023-07-22T12:59:30.521Z,18.93
2023-07-22T13:01:59.052Z,18.91
2023-07-22T13:04:26.187Z,18.91
2023-07-22T13:06:52.889Z,18.88
2023-07-22T13:09:20.543Z,18.91
2023-07-22T13:11:47.508Z,18.82
2023-07-22T13:14:15.263Z,18.75
2023-07-22T13:16:41.813Z,18.70
2023-07-22T13:19:08.332Z,18.57
2023-07-22T13:21:34.861Z,18.59
2023-07-22T13:24:01.401Z,18.53
2023-07-22T13:26:27.971Z,18.49
2023-07-22T13:28:54.590Z,18.42
2023-07-22T13:31:21.247Z,18.38
2023-07-22T13:33:47.819Z,18.37
2023-07-22T13:36:14.354Z,18.33
2023-07-22T13:38:41.088Z,18.28
2023-07-22T13:41:07.608Z,18.24
2023-07-22T13:43:34.211Z,18.24
2023-07-22T13:46:00.771Z,18.16
2023-07-22T13:48:27.344Z,18.00
2023-07-22T13:50:53.962Z,17.90
2023-07-22T13:53:20.477Z,17.91
2023-07-22T13:55:50.203Z,17.93
2023-07-22T13:58:18.481Z,17.96
2023-07-22T14:00:45.080Z,17.97
2023-07-22T14:03:11.713Z,18.06
2023-07-22T14:05:38.296Z,18.07
2023-07-22T14:08:05.068Z,18.03
2023-07-22T14:10:31.689Z,17.99
2023-07-22T14:12:58.217Z,18.02
2023-07-22T14:15:24.769Z,18.02
2023-07-22T14:17:51.346Z,17.98
2023-07-22T14:20:17.905Z,18.02
2023-07-22T14:22:44.814Z,18.07
2023-07-22T14:25:11.508Z,18.15
2023-07-22T14:27:41.264Z,18.17
2023-07-22T14:30:09.035Z,18.20
2023-07-22T14:32:35.709Z,18.35
2023-07-22T14:35:02.412Z,18.39
2023-07-22T14:37:28.938Z,18.47
2023-07-22T14:39:55.489Z,18.44
2023-07-22T14:42:21.987Z,18.46
2023-07-22T14:44:48.678Z,18.46
2023-07-22T14:47:15.194Z,18.42
2023-07-22T14:49:41.720Z,18.45
2023-07-22T14:52:08.460Z,18.42
2023-07-22T14:54:35.109Z,18.49
2023-07-22T14:57:01.718Z,18.55
2023-07-22T14:59:28.180Z,18.51
2023-07-22T15:01:55.374Z,18.54
2023-07-22T15:04:21.971Z,18.53
2023-07-22T15:06:48.554Z,18.52
2023-07-22T15:09:15.125Z,18.44
2023-07-22T15:11:41.667Z,18.36
2023-07-22T15:14:08.335Z,18.31
2023-07-22T15:16:34.988Z,18.26
2023-07-22T15:19:01.707Z,18.21
2023-07-22T15:21:28.603Z,18.18
2023-07-22T15:23:55.618Z,18.10
2023-07-22T15:26:22.169Z,18.03
2023-07-22T15:28:49.479Z,17.99
2023-07-22T15:31:19.363Z,17.98
2023-07-22T15:33:46.033Z,17.96
2023-07-22T15:36:12.913Z,17.93
2023-07-22T15:38:39.464Z,17.93
2023-07-22T15:41:05.973Z,17.97
2023-07-22T15:43:32.547Z,17.96
2023-07-22T15:46:00.140Z,17.96
2023-07-22T15:48:26.730Z,18.02
2023-07-22T15:50:53.475Z,18.04
2023-07-22T15:53:20.367Z,18.15
2023-07-22T15:55:47.015Z,18.24
2023-07-22T15:58:13.545Z,18.36
2023-07-22T16:00:40.261Z,18.50
2023-07-22T16:03:07.215Z,18.63
2023-07-22T16:05:33.884Z,18.73
2023-07-22T16:08:01.313Z,18.71
2023-07-22T16:10:28.266Z,18.72
2023-07-22T16:12:54.841Z,18.73
2023-07-22T16:15:21.483Z,18.72
2023-07-22T16:17:48.095Z,18.74
2023-07-22T16:20:14.918Z,18.77
2023-07-22T16:22:41.695Z,18.88
2023-07-22T16:25:10.383Z,18.97
2023-07-22T16:27:36.950Z,19.04
2023-07-22T16:30:04.156Z,19.10
2023-07-22T16:32:30.942Z,19.20
2023-07-22T16:34:57.671Z,19.23
2023-07-22T16:37:24.746Z,19.25
2023-07-22T16:39:54.619Z,19.18
2023-07-22T16:42:21.437Z,19.17
2023-07-22T16:44:48.136Z,19.10
2023-07-22T16:47:14.782Z,19.13
2023-07-22T16:49:41.533Z,19.03
2023-07-22T16:52:08.449Z,18.99
2023-07-22T16:54:34.923Z,19.01
2023-07-22T16:57:01.460Z,18.94
2023-07-22T16:59:27.966Z,18.99
2023-07-22T17:01:54.603Z,19.01
2023-07-22T17:04:21.113Z,19.03
2023-07-22T17:06:47.648Z,18.98
2023-07-22T17:09:14.890Z,18.93
2023-07-22T17:11:42.331Z,18.93
2023-07-22T17:14:08.970Z,18.94
2023-07-22T17:16:35.510Z,18.94
2023-07-22T17:19:02.038Z,18.91
2023-07-22T17:21:28.952Z,18.90
2023-07-22T17:23:55.623Z,18.86
2023-07-22T17:26:22.229Z,18.84
2023-07-22T17:28:48.749Z,18.81
2023-07-22T17:31:15.342Z,18.87
2023-07-22T17:33:42.232Z,18.80
2023-07-22T17:36:08.812Z,18.76
2023-07-22T17:38:35.455Z,18.69
2023-07-22T17:41:01.994Z,18.64
2023-07-22T17:43:28.552Z,18.60
2023-07-22T17:45:55.108Z,18.58
2023-07-22T17:48:22.464Z,18.54
2023-07-22T17:50:49.349Z,18.47
2023-07-22T17:53:16.022Z,18.39
2023-07-22T17:55:42.541Z,18.33
2023-07-22T17:58:09.104Z,18.24
2023-07-22T18:00:35.666Z,18.18
2023-07-22T18:03:02.226Z,18.06
2023-07-22T18:05:30.282Z,17.95
2023-07-22T18:07:56.992Z,17.85
2023-07-22T18:10:23.571Z,17.81
2023-07-22T18:12:50.033Z,17.78
2023-07-22T18:15:17.070Z,17.72
2023-07-22T18:17:43.601Z,17.63
2023-07-22T18:20:10.647Z,17.58
2023-07-22T18:22:37.272Z,17.46
2023-07-22T18:25:04.959Z,17.49
2023-07-22T18:27:31.532Z,17.48
2023-07-22T18:30:00.394Z,17.45
2023-07-22T18:32:30.862Z,17.33
2023-07-22T18:35:00.774Z,17.27
2023-07-22T18:37:28.128Z,17.19
2023-07-22T18:39:55.728Z,17.11
2023-07-22T18:42:22.424Z,17.03
2023-07-22T18:44:49.066Z,17.02
2023-07-22T18:47:17.326Z,16.95
2023-07-22T18:49:44.061Z,16.88
2023-07-22T18:52:10.579Z,16.82
2023-07-22T18:54:37.134Z,16.73
2023-07-22T18:57:03.838Z,16.72
2023-07-22T18:59:30.355Z,16.73
2023-07-22T19:01:56.886Z,16.65
2023-07-22T19:04:23.451Z,16.56
2023-07-22T19:06:52.616Z,16.47
2023-07-22T19:09:19.389Z,16.39
2023-07-22T19:11:45.993Z,16.26
2023-07-22T19:14:12.640Z,16.18
2023-07-22T19:16:39.263Z,16.17
2023-07-22T19:19:06.963Z,16.13
2023-07-22T19:21:33.601Z,16.10
2023-07-22T19:24:00.086Z,16.09
2023-07-22T19:26:26.629Z,16.07
2023-07-22T19:28:53.255Z,16.04
2023-07-22T19:31:19.873Z,16.00
2023-07-22T19:33:46.487Z,16.05
2023-07-22T19:36:13.075Z,16.02
2023-07-22T19:38:39.645Z,16.01
2023-07-22T19:41:13.995Z,15.99
2023-07-22T19:43:42.305Z,15.99
2023-07-22T19:46:12.796Z,16.04
2023-07-22T19:48:40.250Z,16.01
2023-07-22T19:51:09.105Z,15.96
2023-07-22T19:53:35.715Z,15.92
2023-07-22T19:56:06.230Z,15.87
2023-07-22T19:58:34.958Z,15.82
2023-07-22T20:01:04.029Z,15.79
2023-07-22T20:03:31.724Z,15.74
2023-07-22T20:05:58.697Z,15.71
2023-07-22T20:08:25.232Z,15.68
2023-07-22T20:10:52.792Z,15.66
2023-07-22T20:13:19.533Z,15.63
2023-07-22T20:15:46.687Z,15.58
2023-07-22T20:18:13.185Z,15.60
2023-07-22T20:20:39.721Z,15.55
2023-07-22T20:23:07.513Z,15.52
2023-07-22T20:25:34.368Z,15.52
2023-07-22T20:28:00.837Z,15.48
2023-07-22T20:30:28.081Z,15.45
2023-07-22T20:32:55.115Z,15.39
2023-07-22T20:35:22.304Z,15.34
2023-07-22T20:37:48.947Z,15.30
2023-07-22T20:40:15.621Z,15.23
2023-07-22T20:42:43.718Z,15.21
2023-07-22T20:45:10.636Z,15.18
2023-07-22T20:47:37.454Z,15.15
2023-07-22T20:50:04.670Z,15.11
2023-07-22T20:52:31.313Z,15.06
2023-07-22T20:54:58.008Z,15.01
2023-07-22T20:57:24.431Z,14.98
2023-07-22T20:59:55.450Z,14.94
2023-07-22T21:02:22.141Z,14.93
2023-07-22T21:04:48.813Z,14.91
2023-07-22T21:07:15.438Z,14.93
2023-07-22T21:09:42.133Z,14.91
2023-07-22T21:12:08.866Z,14.89
2023-07-22T21:14:35.408Z,14.91
2023-07-22T21:17:02.061Z,14.86
2023-07-22T21:19:28.653Z,14.85
2023-07-22T21:21:55.212Z,14.82
2023-07-22T21:24:22.946Z,14.80
2023-07-22T21:26:50.188Z,14.82
2023-07-22T21:29:16.897Z,14.74
2023-07-22T21:31:43.499Z,14.73
2023-07-22T21:34:15.594Z,14.71
2023-07-22T21:36:42.588Z,14.72
2023-07-22T21:39:09.198Z,14.71
2023-07-22T21:41:35.768Z,14.70
2023-07-22T21:44:02.293Z,14.69
2023-07-22T21:46:28.836Z,14.67
2023-07-22T21:48:55.424Z,14.70
2023-07-22T21:51:21.918Z,14.71
2023-07-22T21:53:50.224Z,14.72
2023-07-22T21:56:17.098Z,14.70
2023-07-22T21:58:43.661Z,14.70
2023-07-22T22:01:10.237Z,14.68
2023-07-22T22:03:36.846Z,14.69
2023-07-22T22:06:03.466Z,14.69
2023-07-22T22:08:29.963Z,14.68
2023-07-22T22:10:56.538Z,14.66
2023-07-22T22:13:25.702Z,14.65
2023-07-22T22:15:52.686Z,14.64
2023-07-22T22:18:19.360Z,14.62
2023-07-22T22:20:45.911Z,14.61
2023-07-22T22:23:14.139Z,14.60
2023-07-22T22:25:40.799Z,14.58
2023-07-22T22:28:07.381Z,14.58
2023-07-22T22:30:33.903Z,14.59
2023-07-22T22:33:00.540Z,14.58
2023-07-22T22:35:27.075Z,14.59
2023-07-22T22:37:53.634Z,14.61
2023-07-22T22:40:20.213Z,14.60
2023-07-22T22:42:46.796Z,14.58
2023-07-22T22:45:13.720Z,14.58
2023-07-22T22:47:40.341Z,14.59
2023-07-22T22:50:07.424Z,14.57
2023-07-22T22:52:35.653Z,14.57
2023-07-22T22:55:02.906Z,14.56
2023-07-22T22:57:29.389Z,14.56
2023-07-22T22:59:55.927Z,14.54
2023-07-22T23:02:22.516Z,14.54
2023-07-22T23:04:49.036Z,14.56
2023-07-22T23:07:15.571Z,14.56
2023-07-22T23:09:42.224Z,14.57
2023-07-22T23:12:09.097Z,14.58
2023-07-22T23:14:37.842Z,14.59
2023-07-22T23:17:04.460Z,14.59
2023-07-22T23:19:31.063Z,14.59
2023-07-22T23:21:57.684Z,14.58
2023-07-22T23:24:24.278Z,14.55
2023-07-22T23:26:50.825Z,14.57
2023-07-22T23:29:17.414Z,14.57
2023-07-22T23:31:44.000Z,14.56
2023-07-22T23:34:10.645Z,14.57
2023-07-22T23:36:37.543Z,14.56
2023-07-22T23:39:05.518Z,14.54
2023-07-22T23:41:32.028Z,14.56
2023-07-22T23:43:58.625Z,14.55
2023-07-22T23:46:25.176Z,14.54
2023-07-22T23:48:51.848Z,14.56
2023-07-22T23:51:20.479Z,14.56
2023-07-22T23:53:48.886Z,14.55
2023-07-22T23:56:15.486Z,14.55
2023-07-22T23:58:42.255Z,14.54
